Time;durP1;ratioP1;P1;durP2;ratioP2;P2;SDS_P1;SDS_P2;PMS_P1;PMS_P2;Temp;Humidity;BMP_temperature;BMP_pressure;BME280_temperature;BME280_humidity;BME280_pressure;Samples;Min_cycle;Max_cycle;Signal;HPM_P1;HPM_P2
2022/08/04 00:00:11;;;;;;;7.85;4.00;;;;;;;23.93;65.36;101125.69;5083473;28;20447;-60
2022/08/04 00:02:39;;;;;;;10.35;3.97;;;;;;;23.78;66.04;101120.16;5093608;28;20031;-60
2022/08/04 00:05:09;;;;;;;12.95;4.28;;;;;;;23.69;66.12;101118.47;5093757;28;20058;-60
2022/08/04 00:07:45;;;;;;;11.35;4.13;;;;;;;23.71;66.05;101121.06;5094542;28;20028;-60
2022/08/04 00:10:15;;;;;;;12.02;4.53;;;;;;;23.64;66.21;101117.31;5091969;28;20543;-60
2022/08/04 00:12:46;;;;;;;6.88;3.85;;;;;;;23.64;66.35;101110.00;5093882;28;20436;-60
2022/08/04 00:15:14;;;;;;;9.55;4.28;;;;;;;23.62;66.36;101103.91;5093701;28;20483;-60
2022/08/04 00:17:53;;;;;;;9.43;3.38;;;;;;;23.61;65.87;101109.50;5093938;28;20058;-60
2022/08/04 00:20:20;;;;;;;11.13;4.25;;;;;;;23.48;66.42;101101.94;5097198;28;20441;-60
2022/08/04 00:22:47;;;;;;;10.65;3.63;;;;;;;23.38;66.57;101101.28;5093540;28;20028;-60
2022/08/04 00:25:13;;;;;;;11.10;3.75;;;;;;;23.25;66.69;101097.25;5092960;28;20035;-60
2022/08/04 00:27:39;;;;;;;8.10;3.45;;;;;;;23.43;65.74;101104.31;5093468;28;20027;-60
2022/08/04 00:30:10;;;;;;;17.30;3.85;;;;;;;23.30;66.08;101107.59;5094345;28;20046;-60
2022/08/04 00:32:39;;;;;;;7.18;3.40;;;;;;;23.34;65.60;101098.06;5093380;28;20028;-60
2022/08/04 00:35:08;;;;;;;12.40;3.75;;;;;;;23.37;65.25;101099.59;5092382;28;20386;-60
2022/08/04 00:37:39;;;;;;;6.97;3.65;;;;;;;23.46;64.65;101093.09;5094307;28;20466;-60
2022/08/04 00:40:22;;;;;;;9.43;3.63;;;;;;;23.43;64.83;101099.72;5096148;28;20028;-60
2022/08/04 00:43:13;;;;;;;10.45;3.38;;;;;;;23.44;64.74;101093.31;5112337;28;20049;-61
2022/08/04 00:46:02;;;;;;;12.05;3.47;;;;;;;23.41;64.39;101084.63;5094220;28;20020;-60
2022/08/04 00:48:36;;;;;;;9.68;3.40;;;;;;;23.45;64.37;101096.84;5093765;28;20494;-60
2022/08/04 00:51:18;;;;;;;8.25;3.35;;;;;;;23.41;64.11;101087.34;5093976;28;20050;-60
2022/08/04 00:53:49;;;;;;;11.88;3.30;;;;;;;23.43;64.49;101080.72;5091801;28;20556;-60
2022/08/04 00:56:21;;;;;;;8.75;3.30;;;;;;;23.36;64.06;101082.47;5092576;28;20012;-60
2022/08/04 00:58:52;;;;;;;11.82;3.30;;;;;;;23.37;64.04;101083.31;5092954;28;20028;-60
2022/08/04 01:01:32;;;;;;;13.73;3.83;;;;;;;23.37;64.12;101084.13;5092842;28;20093;-60
2022/08/04 01:04:19;;;;;;;9.32;3.42;;;;;;;23.33;64.15;101085.53;5091593;28;20052;-60
2022/08/04 01:07:09;;;;;;;11.93;3.65;;;;;;;23.36;64.14;101082.47;5092278;28;20055;-60
2022/08/04 01:09:58;;;;;;;8.73;3.00;;;;;;;23.33;64.43;101083.66;5092774;28;20103;-60
2022/08/04 01:13:12;;;;;;;10.73;3.67;;;;;;;23.29;63.86;101076.00;5091439;28;20161;-60
2022/08/04 01:16:04;;;;;;;10.82;3.30;;;;;;;23.26;64.88;101079.09;5050905;28;20039;-60
2022/08/04 01:18:38;;;;;;;7.30;3.28;;;;;;;23.26;64.33;101070.94;5090914;28;20387;-60
2022/08/04 01:21:51;;;;;;;11.23;2.90;;;;;;;23.28;64.66;101071.63;5091706;28;20751;-60
2022/08/04 01:24:28;;;;;;;10.65;3.40;;;;;;;23.22;64.71;101064.19;5090996;28;20686;-60
2022/08/04 01:27:22;;;;;;;10.10;3.40;;;;;;;23.26;64.32;101065.50;5090558;28;20031;-60
2022/08/04 01:29:57;;;;;;;8.95;3.20;;;;;;;23.20;64.02;101067.06;5089602;28;20028;-60
2022/08/04 01:32:39;;;;;;;6.40;3.35;;;;;;;23.17;63.83;101055.69;5097612;28;20020;-60
2022/08/04 01:35:24;;;;;;;11.60;3.65;;;;;;;23.13;64.14;101057.94;5093832;28;20031;-60
2022/08/04 01:38:10;;;;;;;7.28;3.10;;;;;;;23.15;63.92;101055.91;5091944;28;20016;-60
2022/08/04 01:40:37;;;;;;;15.52;3.33;;;;;;;23.05;64.27;101049.81;5091050;28;20084;-60
2022/08/04 01:43:03;;;;;;;10.88;3.60;;;;;;;23.03;64.36;101047.28;5091449;28;20032;-60
2022/08/04 01:45:34;;;;;;;11.88;3.75;;;;;;;23.03;63.95;101050.00;5105803;28;20031;-60
2022/08/04 01:48:01;;;;;;;13.30;4.03;;;;;;;22.93;64.48;101045.72;5092238;28;20024;-60
2022/08/04 01:50:33;;;;;;;9.27;3.40;;;;;;;23.00;64.46;101046.75;5094285;28;20547;-60
2022/08/04 01:52:59;;;;;;;9.98;3.55;;;;;;;22.98;63.56;101049.66;5090690;28;20070;-60
2022/08/04 01:55:29;;;;;;;11.98;3.60;;;;;;;22.94;64.06;101042.00;5090507;28;20095;-60
2022/08/04 01:57:57;;;;;;;;;;;;;;;23.18;63.08;101049.25;5092311;28;20459;-61
2022/08/04 02:00:26;;;;;;;6.70;3.42;;;;;;;22.92;63.65;101049.47;5091471;28;19923;-60
2022/08/04 02:02:55;;;;;;;5.40;3.10;;;;;;;22.74;64.24;101030.69;5091559;28;20038;-60
2022/08/04 02:05:23;;;;;;;12.32;3.67;;;;;;;22.85;64.18;101043.88;5090469;28;20036;-60
2022/08/04 02:08:03;;;;;;;10.93;3.17;;;;;;;22.73;64.48;101043.38;5090118;28;20589;-60
2022/08/04 02:10:53;;;;;;;7.88;3.20;;;;;;;22.87;63.74;101045.41;5092167;28;20107;-60
2022/08/04 02:13:39;;;;;;;9.15;3.00;;;;;;;22.83;64.15;101032.38;5089304;28;20415;-60
2022/08/04 02:16:36;;;;;;;11.32;3.75;;;;;;;22.84;64.13;101032.19;5090803;28;20043;-60
2022/08/04 02:19:19;;;;;;;9.57;3.30;;;;;;;22.82;63.38;101027.94;5086727;28;20127;-60
2022/08/04 02:21:50;;;;;;;11.73;3.13;;;;;;;22.64;64.37;101022.72;5090508;28;20024;-60
2022/08/04 02:24:21;;;;;;;7.15;2.80;;;;;;;22.62;63.90;101008.50;5092229;28;20089;-60
2022/08/04 02:26:51;;;;;;;9.57;3.00;;;;;;;22.77;64.02;101024.91;5089053;28;20475;-61
2022/08/04 02:29:19;;;;;;;9.57;2.95;;;;;;;22.74;64.20;101017.97;5089147;28;20028;-60
2022/08/04 02:31:51;;;;;;;11.07;3.40;;;;;;;22.71;64.15;101018.31;5090917;28;20510;-60
2022/08/04 02:34:31;;;;;;;15.20;3.40;;;;;;;22.67;63.09;101016.94;5090816;28;20035;-60
2022/08/04 02:36:58;;;;;;;9.10;2.78;;;;;;;22.53;64.40;101018.50;5092100;28;20035;-60
2022/08/04 02:39:30;;;;;;;7.50;2.50;;;;;;;22.65;63.96;101019.00;5088411;28;20034;-60
2022/08/04 02:41:58;;;;;;;8.23;3.10;;;;;;;22.70;62.88;101007.63;5090808;28;20383;-60
2022/08/04 02:44:26;;;;;;;8.13;2.78;;;;;;;22.72;62.13;101013.72;5090320;28;20028;-61
2022/08/04 02:46:54;;;;;;;13.02;2.97;;;;;;;22.74;61.92;101009.00;5092267;28;20429;-61
2022/08/04 02:49:23;;;;;;;8.40;2.80;;;;;;;22.82;61.52;101006.25;5090434;28;20448;-60
2022/08/04 02:51:56;;;;;;;11.13;3.78;;;;;;;22.82;62.06;101007.09;5089844;28;20417;-60
2022/08/04 02:54:26;;;;;;;8.60;2.92;;;;;;;22.82;62.36;101007.09;5091789;28;20394;-60
2022/08/04 02:56:54;;;;;;;12.43;3.30;;;;;;;22.75;61.96;101003.38;5090075;28;20042;-60
2022/08/04 02:59:24;;;;;;;10.50;2.90;;;;;;;22.81;61.76;100999.13;5088961;28;20433;-60
2022/08/04 03:01:50;;;;;;;8.80;2.95;;;;;;;22.79;61.51;100999.28;5090318;28;20582;-61
2022/08/04 03:04:42;;;;;;;10.82;3.28;;;;;;;22.77;62.48;100995.94;5088718;28;20056;-60
2022/08/04 03:07:34;;;;;;;12.35;3.10;;;;;;;22.78;62.20;100989.47;5091524;28;20471;-60
2022/08/04 03:10:22;;;;;;;14.20;3.05;;;;;;;22.78;62.36;100991.34;5090730;28;20372;-60
2022/08/04 03:13:25;;;;;;;9.30;3.10;;;;;;;22.83;61.76;100983.53;5089856;28;20024;-60
2022/08/04 03:16:27;;;;;;;8.27;2.85;;;;;;;22.79;62.13;100988.44;5090827;28;20027;-60
2022/08/04 03:19:39;;;;;;;11.80;3.17;;;;;;;22.75;62.61;100995.25;5090411;28;20048;-60
2022/08/04 03:22:57;;;;;;;8.15;2.83;;;;;;;22.75;62.67;101014.22;5093492;28;20481;-60
2022/08/04 03:25:44;;;;;;;13.93;2.85;;;;;;;22.66;62.73;101020.69;5059286;28;20036;-60
2022/08/04 03:28:38;;;;;;;9.32;3.58;;;;;;;22.63;62.49;101023.75;5090914;28;20099;-60
2022/08/04 03:31:45;;;;;;;10.45;3.55;;;;;;;22.70;62.75;101011.19;5095425;28;20027;-60
2022/08/04 03:34:44;;;;;;;11.68;3.08;;;;;;;22.77;62.55;101006.78;5074532;28;20054;-60
2022/08/04 03:37:31;;;;;;;8.88;3.40;;;;;;;22.64;62.90;101010.00;5095407;28;20463;-60
2022/08/04 03:40:28;;;;;;;12.15;3.70;;;;;;;22.61;63.38;101007.63;5101335;28;20058;-60
2022/08/04 03:43:35;;;;;;;13.10;3.75;;;;;;;22.53;63.51;101010.38;5092799;28;20028;-60
2022/08/04 03:46:22;;;;;;;10.38;3.13;;;;;;;22.40;64.27;101007.31;5084964;28;20491;-61
2022/08/04 03:49:24;;;;;;;9.35;3.92;;;;;;;22.44;63.67;101006.81;5094771;28;20291;-60
2022/08/04 03:55:10;;;;;;;7.70;3.08;;;;;;;22.41;64.22;101025.28;5094381;28;20055;-60
2022/08/04 03:57:41;;;;;;;12.25;3.25;;;;;;;22.38;64.43;101033.75;5092430;28;20116;-60
2022/08/04 04:00:15;;;;;;;9.93;3.33;;;;;;;22.30;64.45;101034.59;5091373;28;20147;-59
2022/08/04 04:03:20;;;;;;;13.02;3.83;;;;;;;22.29;64.73;101038.31;5096073;28;20023;-60
2022/08/04 04:06:09;;;;;;;10.45;3.97;;;;;;;22.13;64.89;101027.44;5095238;28;20101;-60
2022/08/04 04:08:45;;;;;;;;;;;;;;;22.32;63.82;101037.13;5091435;28;20052;-61
2022/08/04 04:11:26;;;;;;;13.30;3.92;;;;;;;22.18;65.25;101035.97;5094676;28;19920;-60
2022/08/04 04:14:29;;;;;;;7.35;3.50;;;;;;;22.12;65.60;101036.56;5091761;28;20028;-60
2022/08/04 04:17:23;;;;;;;9.55;3.78;;;;;;;22.15;65.40;101030.84;5092350;28;20032;-60
2022/08/04 04:19:58;;;;;;;10.60;4.32;;;;;;;22.12;65.74;101033.84;5093210;28;20374;-60
2022/08/04 04:23:12;;;;;;;12.23;4.65;;;;;;;22.14;65.68;101034.53;5093241;28;20032;-61
2022/08/04 04:26:11;;;;;;;9.48;4.00;;;;;;;22.10;65.78;101033.19;5078840;28;20039;-60
2022/08/04 04:28:46;;;;;;;14.05;4.40;;;;;;;22.10;66.22;101027.78;5092066;28;20077;-60
2022/08/04 04:31:11;;;;;;;15.65;4.20;;;;;;;22.04;66.66;101025.75;5095049;28;20055;-60
2022/08/04 04:33:49;;;;;;;13.13;4.05;;;;;;;22.07;66.80;101034.38;5100285;28;20059;-60
2022/08/04 04:36:22;;;;;;;8.73;3.92;;;;;;;22.08;66.81;101041.47;5093262;28;20031;-60
2022/08/04 04:38:56;;;;;;;13.55;3.65;;;;;;;22.05;67.21;101036.41;5090038;28;20139;-60
2022/08/04 04:41:39;;;;;;;15.32;3.97;;;;;;;22.05;66.97;101033.69;5090913;28;20036;-60
2022/08/04 04:44:23;;;;;;;14.70;4.28;;;;;;;22.11;66.90;101030.31;5091189;28;20024;-60
2022/08/04 04:47:04;;;;;;;9.77;4.25;;;;;;;22.09;67.21;101026.06;5092736;28;20036;-60
2022/08/04 04:49:32;;;;;;;8.93;4.05;;;;;;;21.89;68.54;101033.69;5119616;27;20052;-60
2022/08/04 04:52:35;;;;;;;10.63;3.55;;;;;;;22.05;67.55;101040.97;5093118;28;20063;-60
2022/08/04 04:55:19;;;;;;;11.27;4.55;;;;;;;21.98;68.63;101029.97;5091181;28;20080;-60
2022/08/04 04:57:51;;;;;;;9.00;4.00;;;;;;;22.08;68.13;101036.06;5091588;28;20423;-60
2022/08/04 05:00:17;;;;;;;9.02;4.15;;;;;;;22.10;68.14;101041.31;5091178;28;20512;-60
2022/08/04 05:03:07;;;;;;;12.13;4.63;;;;;;;22.15;68.02;101042.53;5094836;28;20023;-60
2022/08/04 05:05:43;;;;;;;11.60;5.35;;;;;;;22.18;68.32;101046.78;5092795;28;20047;-61
2022/08/04 05:08:46;;;;;;;12.32;4.57;;;;;;;22.26;67.77;101046.78;5091851;28;20020;-60
2022/08/04 05:11:51;;;;;;;8.90;4.20;;;;;;;22.32;68.04;101046.09;5089894;28;20036;-60
2022/08/04 05:14:24;;;;;;;10.75;4.40;;;;;;;22.17;68.92;101026.13;5088695;28;20020;-60
2022/08/04 05:17:16;;;;;;;14.02;5.18;;;;;;;22.33;68.41;101042.41;5092906;28;20474;-60
2022/08/04 05:19:54;;;;;;;15.27;4.75;;;;;;;22.28;69.11;101050.19;5091911;28;20047;-60
2022/08/04 05:22:30;;;;;;;13.30;5.38;;;;;;;22.32;68.77;101047.97;5092382;28;20028;-60
2022/08/04 05:25:12;;;;;;;17.05;5.38;;;;;;;22.34;68.68;101048.66;5092034;28;20506;-61
2022/08/04 05:27:44;;;;;;;17.65;5.38;;;;;;;22.38;69.35;101048.16;5092980;28;20032;-60
2022/08/04 05:30:11;;;;;;;23.83;5.30;;;;;;;22.44;69.44;101050.19;5092912;28;20020;-60
2022/08/04 05:32:51;;;;;;;26.25;6.00;;;;;;;22.52;68.80;101034.94;5091860;28;20106;-60
2022/08/04 05:35:45;;;;;;;25.58;6.75;;;;;;;22.61;68.79;101039.31;5090907;28;20020;-60
2022/08/04 05:38:19;;;;;;;16.60;5.97;;;;;;;22.67;68.55;101039.47;5090420;28;20051;-60
2022/08/04 05:40:45;;;;;;;17.60;5.75;;;;;;;22.67;69.49;101034.06;5093156;28;20024;-61
2022/08/04 05:43:12;;;;;;;12.95;5.85;;;;;;;22.70;68.13;101013.06;5092582;28;20023;-60
2022/08/04 05:45:40;;;;;;;7.32;4.75;;;;;;;22.81;68.37;101024.38;5090635;28;20102;-61
2022/08/04 05:48:07;;;;;;;10.90;4.88;;;;;;;22.82;69.06;101034.22;5088838;28;20396;-60
2022/08/04 05:50:34;;;;;;;16.48;4.88;;;;;;;22.84;69.60;101029.47;5085028;28;20494;-61
2022/08/04 05:53:00;;;;;;;7.70;4.45;;;;;;;22.91;71.14;101029.63;5093901;28;20391;-60
2022/08/04 05:55:28;;;;;;;15.60;5.63;;;;;;;22.87;69.35;101020.97;5088975;28;20053;-60
2022/08/04 05:57:57;;;;;;;13.77;5.27;;;;;;;22.98;69.56;101038.81;5091680;28;20403;-60
2022/08/04 06:00:25;;;;;;;11.52;4.97;;;;;;;22.92;68.71;101027.78;5090754;28;20479;-60
2022/08/04 06:02:52;;;;;;;21.48;6.05;;;;;;;23.03;68.52;101039.13;5092543;28;20125;-60
2022/08/04 06:05:18;;;;;;;12.55;5.65;;;;;;;23.05;68.20;101042.50;5093532;28;20053;-60
2022/08/04 06:07:45;;;;;;;17.00;6.43;;;;;;;23.02;67.86;101037.41;5091742;28;20036;-60
2022/08/04 06:10:11;;;;;;;13.85;6.47;;;;;;;22.90;68.14;101034.19;5090713;28;20055;-61
2022/08/04 06:12:45;;;;;;;11.02;6.63;;;;;;;23.03;67.92;101040.97;5092007;28;20107;-60
2022/08/04 06:15:13;;;;;;;14.82;7.15;;;;;;;23.04;68.04;101039.97;5091449;28;20104;-61
2022/08/04 06:17:45;;;;;;;24.45;8.63;;;;;;;23.01;67.34;101038.44;5091562;28;20028;-60
2022/08/04 06:20:15;;;;;;;23.85;7.93;;;;;;;23.05;68.11;101044.38;5091242;28;20055;-60
2022/08/04 06:22:45;;;;;;;16.05;7.97;;;;;;;23.08;68.26;101036.72;5092649;28;20027;-60
2022/08/04 06:25:12;;;;;;;;;;;;;;;23.32;67.12;101040.38;5090951;28;20509;-60
2022/08/04 06:27:39;;;;;;;25.15;8.45;;;;;;;23.38;67.06;101044.25;5091499;28;19930;-60
2022/08/04 06:30:09;;;;;;;19.95;8.00;;;;;;;23.47;66.59;101051.34;5091075;28;20123;-60
2022/08/04 06:32:46;;;;;;;23.67;8.70;;;;;;;23.61;66.22;101050.59;5092146;28;20032;-60
2022/08/04 06:35:15;;;;;;;26.05;8.52;;;;;;;23.69;65.62;101045.16;5091515;28;20028;-60
2022/08/04 06:37:42;;;;;;;20.05;8.60;;;;;;;23.77;65.03;101053.28;5093171;28;20506;-61
2022/08/04 06:40:09;;;;;;;16.05;8.65;;;;;;;23.91;64.90;101054.38;5089231;28;20051;-61
2022/08/04 06:42:36;;;;;;;14.50;8.73;;;;;;;24.05;63.35;101058.19;5090850;28;20371;-60
2022/08/04 06:45:06;;;;;;;21.42;9.82;;;;;;;24.23;63.53;101061.47;5091156;28;20046;-60
2022/08/04 06:47:36;;;;;;;18.45;8.63;;;;;;;24.32;63.67;101061.41;5088446;28;20448;-59
2022/08/04 06:50:05;;;;;;;26.13;9.00;;;;;;;24.38;63.84;101060.69;5089401;28;20081;-60
2022/08/04 06:52:30;;;;;;;16.42;8.90;;;;;;;24.37;63.28;101050.84;5092415;28;20034;-61
2022/08/04 06:54:56;;;;;;;26.08;9.60;;;;;;;24.35;63.07;101061.03;5088927;28;20387;-60
2022/08/04 06:57:25;;;;;;;14.57;9.02;;;;;;;24.36;63.07;101054.59;5092479;28;20036;-60
2022/08/04 07:00:04;;;;;;;16.33;8.80;;;;;;;24.32;64.02;101062.25;5091161;28;20099;-60
2022/08/04 07:02:37;;;;;;;18.45;9.10;;;;;;;24.30;64.65;101069.75;5088896;28;20360;-63
2022/08/04 07:05:08;;;;;;;15.77;8.77;;;;;;;24.25;64.64;101062.13;5091533;28;20036;-61
2022/08/04 07:07:34;;;;;;;15.23;9.48;;;;;;;24.19;65.43;101057.44;5090909;28;20035;-62
2022/08/04 07:10:01;;;;;;;18.33;9.77;;;;;;;24.18;65.39;101058.47;5088929;28;20035;-63
2022/08/04 07:12:27;;;;;;;15.23;9.40;;;;;;;24.15;65.86;101058.81;5091086;28;20390;-62
2022/08/04 07:14:54;;;;;;;23.05;10.52;;;;;;;24.12;65.34;101053.75;5090625;28;20060;-61
2022/08/04 07:17:22;;;;;;;20.88;9.75;;;;;;;24.16;65.62;101060.50;5090856;28;20387;-63
2022/08/04 07:19:48;;;;;;;12.80;9.38;;;;;;;24.17;65.76;101064.06;5090877;28;20036;-61
2022/08/04 07:22:14;;;;;;;18.35;8.77;;;;;;;24.23;65.34;101064.19;5090129;28;20066;-64
2022/08/04 07:24:41;;;;;;;23.30;9.48;;;;;;;24.25;65.61;101066.72;5089768;28;20047;-62
2022/08/04 07:27:07;;;;;;;17.20;9.07;;;;;;;24.32;65.70;101064.13;5090577;28;20430;-62
2022/08/04 07:29:34;;;;;;;19.83;9.10;;;;;;;24.36;65.16;101077.19;5089006;28;20027;-64
2022/08/04 07:32:00;;;;;;;16.33;8.50;;;;;;;24.39;65.32;101074.09;5090667;28;20020;-61
2022/08/04 07:34:28;;;;;;;14.93;8.02;;;;;;;24.44;64.89;101082.59;5088478;28;20035;-62
2022/08/04 07:36:58;;;;;;;11.63;8.30;;;;;;;24.47;65.46;101073.22;5090439;28;20016;-59
2022/08/04 07:39:30;;;;;;;17.70;8.25;;;;;;;24.58;64.78;101080.94;5089892;28;20031;-59
2022/08/04 07:41:58;;;;;;;14.38;8.52;;;;;;;24.65;64.70;101078.38;5090306;28;20032;-59
2022/08/04 07:44:24;;;;;;;16.10;8.70;;;;;;;24.70;64.17;101074.03;5088959;28;20078;-59
2022/08/04 07:46:49;;;;;;;14.32;8.05;;;;;;;24.70;64.02;101068.59;5089300;28;20494;-59
2022/08/04 07:49:19;;;;;;;17.23;8.20;;;;;;;24.83;64.12;101078.03;5089806;28;20046;-59
2022/08/04 07:51:45;;;;;;;11.65;7.15;;;;;;;24.92;64.39;101077.75;5097863;28;20031;-59
2022/08/04 07:54:12;;;;;;;15.73;6.72;;;;;;;25.02;63.81;101077.47;5092992;28;20032;-59
2022/08/04 07:56:40;;;;;;;11.65;6.75;;;;;;;25.05;63.82;101071.66;5084970;28;20082;-60
2022/08/04 07:59:06;;;;;;;15.23;7.85;;;;;;;25.18;63.51;101079.22;5087866;28;20417;-59
2022/08/04 08:01:34;;;;;;;11.07;7.68;;;;;;;25.18;63.64;101084.66;5087168;28;20020;-59
2022/08/04 08:04:02;;;;;;;14.60;7.13;;;;;;;25.24;63.88;101092.09;5089641;28;20113;-60
2022/08/04 08:06:28;;;;;;;;;;;;;;;25.37;63.61;101097.72;5090414;28;20463;-60
2022/08/04 08:08:59;;;;;;;15.40;7.50;;;;;;;25.38;63.00;101098.56;5091459;28;19927;-59
2022/08/04 08:11:25;;;;;;;10.50;6.20;;;;;;;25.52;63.20;101097.72;5075698;28;20028;-68
2022/08/04 08:13:51;;;;;;;12.60;8.02;;;;;;;25.60;62.14;101105.78;5093235;28;20162;-62
2022/08/04 08:16:19;;;;;;;10.88;7.32;;;;;;;25.63;63.04;101106.44;5075309;28;20380;-68
2022/08/04 08:18:45;;;;;;;12.77;7.55;;;;;;;25.67;63.26;101103.13;5093719;28;20031;-62
2022/08/04 08:21:13;;;;;;;11.63;6.55;;;;;;;25.86;62.97;101109.09;5092123;28;20046;-69
2022/08/04 08:23:41;;;;;;;10.43;6.07;;;;;;;25.90;61.43;101097.59;5092640;28;20395;-63
2022/08/04 08:26:07;;;;;;;11.73;6.38;;;;;;;25.98;61.26;101093.94;5091852;28;20028;-62
2022/08/04 08:28:32;;;;;;;17.58;5.78;;;;;;;25.99;60.56;101098.31;5075107;28;20035;-61
2022/08/04 08:30:58;;;;;;;18.30;4.82;;;;;;;26.16;60.23;101107.13;5093114;28;20027;-62
2022/08/04 08:33:24;;;;;;;11.65;4.82;;;;;;;26.08;58.24;101107.25;5092618;28;20046;-62
2022/08/04 08:36:00;;;;;;;6.72;4.00;;;;;;;26.01;58.69;101115.34;5092255;28;20034;-62
2022/08/04 08:38:52;;;;;;;11.68;4.55;;;;;;;25.96;59.40;101118.63;5113787;27;20038;-64
2022/08/04 08:41:26;;;;;;;8.95;4.05;;;;;;;26.08;59.02;101135.34;5113263;28;20866;-65
2022/08/04 08:44:22;;;;;;;10.50;3.53;;;;;;;26.05;59.17;101133.84;5113610;28;20420;-64
2022/08/04 08:47:08;;;;;;;4.72;2.90;;;;;;;26.05;59.08;101133.84;5092653;28;20020;-60
2022/08/04 08:49:42;;;;;;;8.90;2.75;;;;;;;26.08;58.79;101131.78;5091712;28;20390;-60
2022/08/04 08:52:25;;;;;;;9.10;3.10;;;;;;;26.08;57.26;101146.25;5093102;28;20055;-60
2022/08/04 08:55:02;;;;;;;6.70;2.53;;;;;;;26.02;57.14;101134.22;5092375;28;20028;-56
2022/08/04 08:57:46;;;;;;;11.43;3.05;;;;;;;26.17;56.79;101138.78;5092813;28;20028;-60
2022/08/04 09:00:39;;;;;;;9.00;3.05;;;;;;;26.24;56.68;101143.31;5092232;28;20028;-59
2022/08/04 09:03:36;;;;;;;10.20;3.10;;;;;;;26.37;57.27;101136.28;5091435;28;20375;-58
2022/08/04 09:06:02;;;;;;;;;;;;;;;26.48;57.70;101147.53;5093011;28;20040;-60
2022/08/04 09:08:40;;;;;;;8.68;2.88;;;;;;;26.48;57.17;101152.16;5093028;28;20325;-60
2022/08/04 09:11:11;;;;;;;12.82;3.10;;;;;;;26.52;56.58;101153.47;5091701;28;20359;-67
2022/08/04 09:14:15;;;;;;;10.07;3.00;;;;;;;26.53;56.76;101146.97;5092882;28;20051;-62
2022/08/04 09:16:53;;;;;;;8.73;2.88;;;;;;;26.46;56.33;101141.41;5060919;28;20032;-58
2022/08/04 09:19:35;;;;;;;12.18;3.15;;;;;;;26.45;55.86;101153.38;5092251;28;20087;-58
2022/08/04 09:22:07;;;;;;;11.98;2.85;;;;;;;26.38;55.96;101147.00;5091217;28;20210;-58
2022/08/04 09:24:32;;;;;;;11.45;2.92;;;;;;;26.39;55.50;101150.59;5091965;28;20032;-58
2022/08/04 09:27:09;;;;;;;11.40;2.78;;;;;;;26.36;55.32;101143.63;5093294;28;20078;-58
2022/08/04 09:30:06;;;;;;;10.32;2.78;;;;;;;26.43;54.88;101158.19;5091697;28;20020;-61
2022/08/04 09:32:37;;;;;;;15.07;3.00;;;;;;;26.41;55.67;101167.59;5092454;28;20419;-60
2022/08/04 09:35:12;;;;;;;9.38;2.45;;;;;;;26.44;55.24;101159.88;5092172;28;20353;-61
2022/08/04 09:37:59;;;;;;;9.18;2.60;;;;;;;26.45;54.88;101158.00;5092014;28;20106;-60
2022/08/04 09:40:33;;;;;;;14.40;2.50;;;;;;;26.38;54.69;101165.25;5091663;28;20536;-61
2022/08/04 09:43:23;;;;;;;9.57;2.42;;;;;;;26.35;54.62;101180.13;5092290;28;20031;-61
2022/08/04 09:46:04;;;;;;;8.27;2.63;;;;;;;26.33;54.22;101181.38;5092023;28;20028;-61
2022/08/04 09:48:41;;;;;;;10.30;2.53;;;;;;;26.35;54.13;101184.72;5091676;28;20028;-60
2022/08/04 09:51:31;;;;;;;9.85;2.42;;;;;;;26.31;54.16;101187.00;5091969;28;20475;-59
2022/08/04 09:54:05;;;;;;;11.35;2.63;;;;;;;26.30;54.64;101185.31;5074739;28;20032;-61
2022/08/04 09:56:58;;;;;;;9.25;2.67;;;;;;;26.29;54.52;101195.38;5091248;28;20016;-61
2022/08/04 09:59:27;;;;;;;9.05;2.33;;;;;;;26.29;54.07;101191.78;5091984;28;20020;-60
2022/08/04 10:02:04;;;;;;;9.20;2.90;;;;;;;26.18;54.68;101200.50;5090596;28;20516;-61
2022/08/04 10:04:34;;;;;;;9.18;2.42;;;;;;;26.13;53.75;101208.41;5092386;28;20047;-61
2022/08/04 10:07:15;;;;;;;11.80;3.03;;;;;;;26.03;54.77;101209.53;5091834;28;20571;-61
2022/08/04 10:10:06;;;;;;;7.35;2.58;;;;;;;26.00;55.39;101198.16;5091086;28;20032;-61
2022/08/04 10:12:48;;;;;;;9.18;2.35;;;;;;;25.87;56.46;101200.72;5090484;28;20426;-61
2022/08/04 10:15:20;;;;;;;10.65;2.78;;;;;;;25.76;56.65;101207.44;5090195;28;20414;-60
2022/08/04 10:18:08;;;;;;;9.55;3.25;;;;;;;25.65;57.38;101230.56;5090185;28;20028;-61
2022/08/04 10:21:01;;;;;;;11.70;3.00;;;;;;;25.57;58.26;101275.06;5089904;28;20024;-59
2022/08/04 10:24:01;;;;;;;11.05;3.13;;;;;;;25.53;59.22;101281.94;5090175;28;20073;-59
2022/08/04 10:26:30;;;;;;;11.23;2.53;;;;;;;25.29;61.10;101299.31;5086045;28;20472;-62
2022/08/04 10:29:29;;;;;;;10.02;2.80;;;;;;;25.20;65.52;101278.63;5089433;28;20028;-61
2022/08/04 10:32:04;;;;;;;16.00;3.35;;;;;;;24.95;67.04;101279.81;5089826;28;20115;-61
2022/08/04 10:34:47;;;;;;;10.07;3.28;;;;;;;24.82;70.25;101278.50;5090191;28;20425;-61
2022/08/04 10:37:14;;;;;;;9.20;3.00;;;;;;;24.70;71.69;101253.59;5090123;28;20088;-61
2022/08/04 10:43:05;;;;;;;8.20;3.40;;;;;;;24.61;74.59;101213.84;5092100;28;20386;-61
2022/08/04 10:46:09;;;;;;;12.40;3.58;;;;;;;24.77;71.68;101190.31;5082227;28;20059;-61
2022/08/04 10:48:53;;;;;;;11.63;4.18;;;;;;;24.66;74.70;101197.00;5005831;28;20120;-61
2022/08/04 10:51:36;;;;;;;12.57;3.97;;;;;;;24.64;77.37;101199.06;5081291;28;20044;-62
2022/08/04 10:54:06;;;;;;;16.40;4.25;;;;;;;24.82;76.68;101199.59;5090186;28;20032;-61
2022/08/04 10:56:40;;;;;;;9.15;3.90;;;;;;;25.33;75.24;101189.00;5090920;28;20024;-61
2022/08/04 10:59:16;;;;;;;12.90;4.32;;;;;;;25.81;74.21;101207.72;5089975;28;20024;-61
2022/08/04 11:01:45;;;;;;;8.93;3.38;;;;;;;25.83;73.52;101206.53;5090437;28;20019;-61
2022/08/04 11:04:22;;;;;;;14.60;3.92;;;;;;;25.78;72.38;101221.72;5090423;28;20430;-61
2022/08/04 11:06:51;;;;;;;17.92;4.20;;;;;;;25.57;73.69;101228.75;5089320;28;20089;-61
2022/08/04 11:09:17;;;;;;;12.40;4.25;;;;;;;25.34;72.45;101222.50;5087506;28;20063;-66
2022/08/04 11:11:53;;;;;;;12.52;4.07;;;;;;;25.20;73.74;101213.28;5094540;28;20032;-61
2022/08/04 11:14:50;;;;;;;9.75;4.35;;;;;;;25.03;74.11;101206.25;5088799;28;20059;-61
2022/08/04 11:17:39;;;;;;;14.55;4.80;;;;;;;25.08;73.41;101196.50;5072148;28;20058;-61
2022/08/04 11:20:04;;;;;;;;;;;;;;;25.21;71.30;101209.53;5092249;28;20034;-61
2022/08/04 11:22:30;;;;;;;6.47;3.90;;;;;;;25.02;72.68;101197.22;5091679;28;19911;-59
2022/08/04 11:24:59;;;;;;;9.23;4.78;;;;;;;25.20;72.76;101194.22;5087684;28;20498;-61
2022/08/04 11:27:36;;;;;;;16.20;5.00;;;;;;;25.34;72.21;101196.13;5090241;28;20170;-60
2022/08/04 11:30:07;;;;;;;9.32;5.13;;;;;;;25.60;71.67;101195.69;5089559;28;20077;-58
2022/08/04 11:32:53;;;;;;;10.55;4.80;;;;;;;25.90;70.78;101203.91;5093685;28;20020;-58
2022/08/04 11:35:34;;;;;;;9.10;4.68;;;;;;;26.49;70.03;101194.75;5087750;28;20478;-58
2022/08/04 11:38:11;;;;;;;10.57;4.45;;;;;;;27.10;66.32;101214.31;5092982;28;20403;-59
2022/08/04 11:40:46;;;;;;;6.78;3.63;;;;;;;27.73;64.45;101208.91;5086258;28;20016;-58
2022/08/04 11:43:18;;;;;;;11.52;4.13;;;;;;;27.90;61.11;101214.94;5086006;28;20399;-57
2022/08/04 11:45:55;;;;;;;12.45;3.72;;;;;;;27.74;61.43;101218.81;5094035;28;20027;-57
2022/08/04 11:48:31;;;;;;;10.82;3.42;;;;;;;27.67;60.38;101220.63;5091848;28;20028;-57
2022/08/04 11:51:04;;;;;;;10.10;3.42;;;;;;;27.70;59.69;101212.03;5091427;28;20016;-57
2022/08/04 11:53:30;;;;;;;7.55;3.45;;;;;;;27.46;59.93;101198.84;5092348;28;20106;-57
2022/08/04 11:56:01;;;;;;;7.40;3.22;;;;;;;27.26;59.46;101212.34;5091806;28;20067;-58
2022/08/04 11:58:27;;;;;;;7.18;2.80;;;;;;;27.11;59.76;101201.47;5091821;28;20042;-57
2022/08/04 12:01:24;;;;;;;11.85;3.53;;;;;;;27.08;61.60;101210.91;5096086;28;20020;-57
2022/08/04 12:04:12;;;;;;;6.65;3.55;;;;;;;27.27;61.66;101212.16;5094421;28;20430;-57
2022/08/04 12:06:44;;;;;;;;;;;;;;;27.54;61.77;101215.94;5093913;28;20088;-57
2022/08/04 12:09:31;;;;;;;6.45;4.22;;;;;;;27.46;60.24;101212.50;5092527;28;19915;-57
2022/08/04 12:12:19;;;;;;;9.20;4.10;;;;;;;27.52;59.82;101222.66;5094305;28;20031;-57